Latest Coastal Weather Observations for Newcastle Nobbys

IDN60701

Issued at 6:41 am EST Saturday 24 June 2017 (issued every 10 minutes, with the page automatically refreshed every 10 minutes)

About coastal observations | Map of coastal stations | Coastal observations for NSW | Marine services | Other Formats
Station Details ID: 061055 Name: NEWCASTLE NOBBYS SIGNAL STATION AWS Lat: -32.92 Lon: 151.80 Height: 33.0 m
Data from the previous 72 hours. | See also: Recent months at Newcastle Nobbys
Date/Time
EST
Temp
°C
Wind Pressure Rain since
9am
mm
Weather Cloud Vis
km
Sea
Height
m
Swell
Dir  Spd
kts
Gust
kts
hPa Trend Height
m
Period
s
Dir
24/06:30am 13.0 NW 11 14 - - 0.0 - - - - - - -
24/06:00am 12.7 NW 13 16 - - 0.0 - - - - - - -
24/05:30am 12.7 NW 12 15 - - 0.0 - - - - - - -
24/05:00am 12.7 WNW 13 17 - - 0.0 - - - - - - -
24/04:30am 12.7 WNW 13 17 - - 0.0 - - - - - - -
24/04:00am 12.9 WNW 14 17 - - 0.0 - - - - - - -
24/03:30am 13.0 WNW 14 19 - - 0.0 - - - - - - -
24/03:00am 13.1 WNW 12 16 - - 0.0 - - - - - - -
24/02:30am 13.4 WNW 16 21 - - 0.0 - - - - - - -
24/02:00am 13.5 WNW 14 19 - - 0.0 - - - - - - -
24/01:30am 13.8 WNW 16 22 - - 0.0 - - - - - - -
24/01:00am 14.1 WNW 15 22 - - 0.0 - - - - - - -
24/12:30am 14.0 W 13 17 - - 0.0 - - - - - - -
24/12:00am 13.7 WNW 11 14 - - 0.0 - - - - - - -
 
Date/Time
EST
Temp
°C
Wind Pressure Rain since
9am
mm
Weather Cloud Vis
km
Sea
Height
m
Swell
Dir  Spd
kts
Gust
kts
hPa Trend Height
m
Period
s
Dir
23/11:30pm 13.2 W 10 13 - - 0.0 - - - - - - -
23/11:00pm 13.4 WNW 7 9 - - 0.0 - - - - - - -
23/10:30pm 13.6 WNW 6 8 - - 0.0 - - - - - - -
23/10:00pm 14.3 NW 4 5 - - 0.0 - - - - - - -
23/09:30pm 14.8 NW 5 6 - - 0.0 - - - - - - -
23/09:00pm 14.9 NNW 5 6 - - 0.0 - - - - - - -
23/08:30pm 15.1 NW 4 5 - - 0.0 - - - - - - -
23/08:00pm 15.4 NW 5 6 - - 0.0 - - - - - - -
23/07:30pm 15.7 WNW 4 5 - - 0.0 - - - - - - -
23/07:00pm 16.2 WNW 4 5 - - 0.0 - - - - - - -
23/06:30pm 16.9 WNW 8 13 - - 0.0 - - - - - - -
23/06:00pm 16.6 NW 8 11 - - 0.0 - - - - - - -
23/05:30pm 16.5 NW 10 13 - - 0.0 - - - - - - -
23/05:00pm 16.3 NW 11 15 - - 0.0 - - - - - - -
23/04:30pm 16.4 NW 11 14 - - 0.0 - - - - - - -
23/04:00pm 16.3 WNW 7 9 - - 0.0 - - - - - - -
23/03:30pm 16.2 NW 8 11 - - 0.0 - - - - - - -
23/03:00pm 16.4 NW 11 16 - - 0.0 - - - - - - -
23/02:30pm 16.7 NW 10 15 - - 0.0 - - - - - - -
23/02:00pm 16.9 NW 11 16 - - 0.0 - - - - - - -
23/01:30pm 16.6 NW 11 14 - - 0.0 - - - - - - -
23/01:00pm 16.4 NW 11 15 - - 0.0 - - - - - - -
23/12:30pm 16.6 NW 12 16 - - 0.0 - - - - - - -
23/12:00pm 15.9 NW 15 19 - - 0.0 - - - - - - -
23/11:30am 16.1 NW 15 19 - - 0.0 - - - - - - -
23/11:00am 15.0 NW 14 17 - - 0.0 - - - - - - -
23/10:30am 14.5 NW 12 16 - - 0.0 - - - - - - -
23/10:00am 12.9 NNW 7 10 - - 0.0 - - - - - - -
23/09:30am 11.6 NW 13 16 - - 0.0 - - - - - - -
23/09:00am 11.3 NW 11 13 - - 0.2 - - - - - - -
23/08:30am 11.0 NW 12 14 - - 0.2 - - - - - - -
23/08:00am 10.4 NW 10 14 - - 0.2 - - - - - - -
23/07:30am 9.9 WNW 9 11 - - 0.2 - - - - - - -
23/07:00am 9.9 NW 9 12 - - 0.2 - - - - - - -
23/06:30am 10.1 NW 10 12 - - 0.2 - - - - - - -
23/06:00am 10.1 NW 10 12 - - 0.2 - - - - - - -
23/05:30am 10.3 NW 10 12 - - 0.2 - - - - - - -
23/05:00am 10.4 NW 10 12 - - 0.2 - - - - - - -
23/04:30am 10.5 NW 11 14 - - 0.2 - - - - - - -
23/04:00am 10.5 NW 7 10 - - 0.2 - - - - - - -
23/03:30am 11.1 NW 6 7 - - 0.2 - - - - - - -
23/03:00am 11.2 NNW 5 8 - - 0.2 - - - - - - -
23/02:30am 11.2 NW 7 9 - - 0.2 - - - - - - -
23/02:00am 11.3 NW 8 10 - - 0.2 - - - - - - -
23/01:30am 11.7 NW 8 9 - - 0.2 - - - - - - -
23/01:00am 11.9 NNW 6 8 - - 0.2 - - - - - - -
23/12:30am 12.1 NW 6 8 - - 0.2 - - - - - - -
23/12:00am 12.4 NW 8 9 - - 0.2 - - - - - - -
 
Date/Time
EST
Temp
°C
Wind Pressure Rain since
9am
mm
Weather Cloud Vis
km
Sea
Height
m
Swell
Dir  Spd
kts
Gust
kts
hPa Trend Height
m
Period
s
Dir
22/11:30pm 12.5 WNW 5 7 - - 0.2 - - - - - - -
22/11:00pm 12.8 WNW 3 4 - - 0.2 - - - - - - -
22/10:30pm 12.9 WNW 5 7 - - 0.2 - - - - - - -
22/10:00pm 13.0 WNW 3 4 - - 0.2 - - - - - - -
22/09:30pm 13.0 WNW 6 8 - - 0.2 - - - - - - -
22/09:00pm 13.7 W 5 8 - - 0.2 - - - - - - -
22/08:30pm 15.0 WNW 3 4 - - 0.2 - - - - - - -
22/08:00pm 16.4 NE 2 3 - - 0.2 - - - - - - -
22/07:30pm 16.4 SW 1 3 - - 0.2 - - - - - - -
22/07:00pm 16.6 SSE 4 5 - - 0.2 - - - - - - -
22/06:30pm 16.7 SSE 5 7 - - 0.2 - - - - - - -
22/06:00pm 16.6 S 6 9 - - 0.2 - - - - - - -
22/05:30pm 16.6 S 6 9 - - 0.2 - - - - - - -
22/05:00pm 16.7 SSW 7 11 - - 0.2 - - - - - - -
22/04:30pm 17.0 SSW 8 11 - - 0.2 - - - - - - -
22/04:00pm 17.1 S 9 12 - - 0.2 - - - - - - -
22/03:30pm 17.3 S 9 11 - - 0.2 - - - - - - -
22/03:00pm 17.4 SSW 10 13 - - 0.2 - - - - - - -
22/02:30pm 17.3 S 10 13 - - 0.2 - - - - - - -
22/02:00pm 17.2 SSW 10 14 - - 0.2 - - - - - - -
22/01:30pm 18.0 SSW 10 13 - - 0.2 - - - - - - -
22/01:00pm 17.1 SSW 7 9 - - 0.2 - - - - - - -
22/12:30pm 17.2 SSW 9 12 - - 0.2 - - - - - - -
22/12:00pm 17.1 SSW 10 12 - - 0.2 - - - - - - -
22/11:30am 17.2 SSW 9 14 - - 0.2 - - - - - - -
22/11:00am 17.1 SW 8 12 - - 0.2 - - - - - - -
22/10:30am 17.0 SW 9 13 - - 0.0 - - - - - - -
22/10:00am 17.0 SW 8 13 - - 0.0 - - - - - - -
22/09:30am 16.5 SW 6 11 - - 0.0 - - - - - - -
22/09:00am 15.7 SW 6 10 - - 0.2 - - - - - - -
22/08:30am 15.1 W 7 8 - - 0.2 - - - - - - -
22/08:00am 13.7 NW 7 9 - - 0.2 - - - - - - -
22/07:30am 13.5 W 6 8 - - 0.2 - - - - - - -
22/07:00am 13.2 W 7 10 - - 0.2 - - - - - - -
22/06:30am 13.2 WSW 6 7 - - 0.2 - - - - - - -
22/06:00am 13.4 WSW 8 10 - - 0.2 - - - - - - -
22/05:30am 13.2 W 8 12 - - 0.2 - - - - - - -
22/05:00am 13.7 WSW 6 9 - - 0.2 - - - - - - -
22/04:30am 13.8 WSW 7 10 - - 0.2 - - - - - - -
22/04:00am 14.2 WSW 6 11 - - 0.2 - - - - - - -
22/03:30am 14.5 SW 7 10 - - 0.2 - - - - - - -
22/03:00am 14.6 SW 9 15 - - 0.2 - - - - - - -
22/02:30am 14.6 SW 10 15 - - 0.2 - - - - - - -
22/02:00am 14.8 SSW 11 15 - - 0.2 - - - - - - -
22/01:30am 15.1 SW 9 15 - - 0.2 - - - - - - -
22/01:00am 15.1 SW 9 14 - - 0.2 - - - - - - -
22/12:30am 14.7 WSW 6 9 - - 0.2 - - - - - - -
22/12:00am 14.9 WSW 6 8 - - 0.2 - - - - - - -
 
Date/Time
EST
Temp
°C
Wind Pressure Rain since
9am
mm
Weather Cloud Vis
km
Sea
Height
m
Swell
Dir  Spd
kts
Gust
kts
hPa Trend Height
m
Period
s
Dir
21/11:30pm 14.7 W 7 9 - - 0.2 - - - - - - -
21/11:00pm 15.1 WSW 8 10 - - 0.2 - - - - - - -
21/10:30pm 16.0 WSW 8 15 - - 0.2 - - - - - - -
21/10:00pm 18.0 SSW 9 14 - - 0.2 - - - - - - -
21/09:30pm 18.1 S 16 19 - - 0.2 - - - - - - -
21/09:00pm 18.2 S 18 22 - - 0.2 - - - - - - -
21/08:30pm 18.3 S 16 20 - - 0.2 - - - - - - -
21/08:00pm 18.3 S 17 21 - - 0.2 - - - - - - -
21/07:30pm 18.2 S 18 21 - - 0.2 - - - - - - -
21/07:00pm 18.2 SSE 18 21 - - 0.2 - - - - - - -
21/06:30pm 18.2 SSE 17 20 - - 0.2 - - - - - - -
21/06:00pm 18.0 SSE 16 19 - - 0.2 - - - - - - -
21/05:52pm 17.9 S 15 19 - - 0.2 - - - - - - -
21/05:30pm 17.1 SW 6 9 - - 0.2 - - - - - - -
21/05:00pm 17.2 WSW 6 9 - - 0.2 - - - - - - -
21/04:30pm 17.6 WSW 7 10 - - 0.2 - - - - - - -
21/04:00pm 18.1 SW 8 11 - - 0.2 - - - - - - -
21/03:30pm 17.9 SW 8 12 - - 0.2 - - - - - - -
21/03:00pm 17.9 SW 9 13 - - 0.2 - - - - - - -
21/02:30pm 17.6 SSW 10 13 - - 0.2 - - - - - - -
21/02:00pm 17.6 SSW 13 18 - - 0.2 - - - - - - -
21/01:30pm 17.5 SSW 11 15 - - 0.2 - - - - - - -
21/01:00pm 17.6 SSW 8 11 - - 0.2 - - - - - - -
21/12:30pm 17.4 SSW 5 9 - - 0.2 - - - - - - -
21/12:00pm 17.0 SSW 6 9 - - 0.0 - - - - - - -
21/11:30am 16.3 SSW 7 10 - - 0.0 - - - - - - -
21/11:00am 16.3 SSW 7 11 - - 0.0 - - - - - - -
21/10:30am 16.9 W 9 11 - - 0.0 - - - - - - -
21/10:00am 15.8 WNW 6 8 - - 0.0 - - - - - - -
21/09:30am 15.2 WNW 5 7 - - 0.0 - - - - - - -
21/09:00am 13.8 WNW 7 9 - - 0.2 - - - - - - -
21/08:30am 12.4 WNW 8 9 - - 0.2 - - - - - - -
21/08:00am 11.4 WNW 6 8 - - 0.2 - - - - - - -
21/07:30am 11.0 WNW 6 7 - - 0.2 - - - - - - -
21/07:00am 10.6 NW 6 7 - - 0.2 - - - - - - -

Other Formats:

Comma delimited format used in spreadsheet applications
http://www.bom.gov.au/fwo/IDN60701/IDN60701.94774.axf

JavaScript Object Notation format (JSON) in row-major order
http://www.bom.gov.au/fwo/IDN60701/IDN60701.94774.json